Time;durP1;ratioP1;P1;durP2;ratioP2;P2;SDS_P1;SDS_P2;PMS_P1;PMS_P2;Temp;Humidity;BMP_temperature;BMP_pressure;BME280_temperature;BME280_humidity;BME280_pressure;Samples;Min_cycle;Max_cycle;Signal;HPM_P1;HPM_P2
2021/10/06 00:00:39;;;;;;;13.32;8.07;;;;;;;7.50;58.51;102227.56;5118875;27;20035;-73
2021/10/06 00:03:05;;;;;;;14.90;8.38;;;;;;;7.49;58.49;102230.19;5124561;27;20045;-77
2021/10/06 00:05:31;;;;;;;19.38;10.25;;;;;;;7.50;58.82;102231.94;5128619;27;20035;-75
2021/10/06 00:07:57;;;;;;;16.85;8.52;;;;;;;7.47;58.27;102232.88;5118061;27;20044;-75
2021/10/06 00:10:23;;;;;;;21.58;11.13;;;;;;;7.47;58.26;102232.88;5113553;27;20035;-77
2021/10/06 00:12:49;;;;;;;29.77;15.95;;;;;;;7.44;58.93;102239.06;5114342;27;20397;-73
2021/10/06 00:15:14;;;;;;;27.70;13.65;;;;;;;7.48;58.24;102237.25;5127211;27;20066;-77
2021/10/06 00:17:42;;;;;;;32.92;13.40;;;;;;;7.48;58.89;102239.88;5113400;28;20075;-74
2021/10/06 00:20:11;;;;;;;29.83;17.13;;;;;;;7.50;58.71;102248.63;5128569;27;20080;-72
2021/10/06 00:22:37;;;;;;;37.70;18.98;;;;;;;7.50;58.69;102245.97;5132099;27;20046;-75
2021/10/06 00:25:03;;;;;;;25.00;12.43;;;;;;;7.47;58.26;102240.78;5120583;27;20381;-76
2021/10/06 00:27:29;;;;;;;26.83;15.25;;;;;;;7.48;58.51;102237.25;5113037;27;20048;-76
2021/10/06 00:29:55;;;;;;;25.85;13.00;;;;;;;7.41;58.51;102251.44;5126598;27;20046;-77
2021/10/06 00:32:21;;;;;;;33.53;16.63;;;;;;;7.43;58.27;102247.03;5115450;27;20046;-74
2021/10/06 00:34:47;;;;;;;26.10;14.00;;;;;;;7.48;58.53;102245.16;5127005;27;20100;-74
2021/10/06 00:37:13;;;;;;;35.45;18.52;;;;;;;7.47;58.42;102232.88;5132230;27;20043;-75
2021/10/06 00:39:38;;;;;;;41.80;20.33;;;;;;;7.47;58.81;102238.13;5131107;27;20046;-73
2021/10/06 00:42:05;;;;;;;45.55;22.58;;;;;;;7.47;58.76;102237.28;5113795;27;20385;-76
2021/10/06 00:44:36;;;;;;;41.20;23.10;;;;;;;7.42;59.28;102237.38;5123512;27;20053;-71
2021/10/06 00:47:03;;;;;;;33.55;17.77;;;;;;;7.42;59.21;102237.38;5129118;27;20043;-72
2021/10/06 00:49:29;;;;;;;45.28;25.85;;;;;;;7.43;59.05;102241.75;5125124;27;20048;-72
2021/10/06 00:51:55;;;;;;;52.45;28.40;;;;;;;7.40;58.84;102252.34;5115137;27;20039;-74
2021/10/06 00:54:20;;;;;;;47.15;24.30;;;;;;;7.34;58.57;102244.56;5111016;28;20134;-75
2021/10/06 00:56:46;;;;;;;39.10;19.15;;;;;;;7.33;59.20;102251.63;5117959;27;20126;-74
2021/10/06 00:59:12;;;;;;;33.97;16.55;;;;;;;7.34;58.82;102242.81;5128061;27;20131;-75
2021/10/06 01:01:38;;;;;;;32.92;17.25;;;;;;;7.32;58.70;102249.88;5112525;28;20627;-72
2021/10/06 01:04:05;;;;;;;41.90;20.35;;;;;;;7.32;58.69;102244.63;5118277;27;20391;-75
2021/10/06 01:06:31;;;;;;;45.63;23.40;;;;;;;7.27;58.21;102241.22;5128570;27;20043;-75
2021/10/06 01:08:59;;;;;;;44.25;23.65;;;;;;;7.30;58.84;102243.78;5126894;27;20070;-73
2021/10/06 01:11:25;;;;;;;26.50;12.70;;;;;;;7.32;58.54;102249.03;5125124;27;20138;-74
2021/10/06 01:13:51;;;;;;;31.80;18.05;;;;;;;7.30;58.63;102243.78;5117045;27;20126;-74
2021/10/06 01:16:16;;;;;;;29.50;15.63;;;;;;;7.22;59.17;102243.94;5119130;27;20130;-77
2021/10/06 01:18:42;;;;;;;39.35;19.73;;;;;;;7.18;58.72;102241.41;5122028;27;20100;-73
2021/10/06 01:21:10;;;;;;;36.40;20.55;;;;;;;7.20;59.22;102245.75;5110702;28;20040;-77
2021/10/06 01:23:36;;;;;;;34.38;17.90;;;;;;;7.23;58.81;102248.31;5125881;27;20054;-75
2021/10/06 01:26:02;;;;;;;30.20;15.38;;;;;;;7.20;59.21;102251.03;5124883;27;20093;-75
2021/10/06 01:28:28;;;;;;;30.83;16.52;;;;;;;7.12;59.72;102247.69;5111912;28;20039;-77
2021/10/06 01:30:54;;;;;;;26.75;14.50;;;;;;;7.07;59.42;102254.81;5117871;27;20453;-74
2021/10/06 01:33:19;;;;;;;22.75;10.15;;;;;;;7.09;58.83;102248.59;5118216;27;20453;-73
2021/10/06 01:35:45;;;;;;;26.77;12.57;;;;;;;7.06;59.46;102253.06;5131105;27;20043;-73
2021/10/06 01:38:11;;;;;;;23.77;10.95;;;;;;;7.05;59.15;102240.81;5119368;28;20039;-76
2021/10/06 01:40:37;;;;;;;25.13;11.50;;;;;;;7.09;59.76;102253.00;5112852;27;20095;-75
2021/10/06 01:43:03;;;;;;;22.77;10.75;;;;;;;7.16;59.55;102254.59;5111359;28;20046;-79
2021/10/06 01:45:32;;;;;;;18.13;9.65;;;;;;;7.15;59.72;102252.84;5116620;27;20031;-76
2021/10/06 01:48:10;;;;;;;21.67;10.65;;;;;;;7.13;59.00;102254.69;5128179;27;20036;-73
2021/10/06 01:50:45;;;;;;;21.90;9.50;;;;;;;7.04;59.34;102254.84;5116246;27;20039;-78
2021/10/06 01:53:14;;;;;;;18.58;8.90;;;;;;;7.04;59.96;102266.25;5122431;28;20039;-79
2021/10/06 01:55:41;;;;;;;17.55;8.85;;;;;;;7.00;59.85;102261.09;5130699;27;20043;-74
2021/10/06 01:58:13;;;;;;;17.00;8.95;;;;;;;6.99;60.02;102264.59;5119057;28;20177;-75
2021/10/06 02:00:40;;;;;;;17.83;9.07;;;;;;;7.03;59.70;102266.28;5117079;27;20043;-77
2021/10/06 02:03:06;;;;;;;19.15;7.72;;;;;;;6.99;59.67;102268.13;5120345;27;20078;-73
2021/10/06 02:05:35;;;;;;;18.48;7.85;;;;;;;7.00;59.65;102268.97;5130356;27;20053;-72
2021/10/06 02:08:01;;;;;;;16.38;8.82;;;;;;;6.86;59.64;102267.47;5131591;27;20134;-72
2021/10/06 02:10:28;;;;;;;20.40;8.50;;;;;;;6.90;60.52;102269.19;5126063;27;20040;-78
2021/10/06 02:12:54;;;;;;;19.75;9.50;;;;;;;6.89;60.13;102280.59;5115302;27;20059;-72
2021/10/06 02:15:20;;;;;;;22.75;8.70;;;;;;;6.92;60.23;102280.50;5115929;27;20074;-73
2021/10/06 02:17:45;;;;;;;17.98;8.43;;;;;;;6.86;59.93;102278.00;5130216;27;20035;-73
2021/10/06 02:20:11;;;;;;;19.70;8.60;;;;;;;6.78;60.73;102270.25;5118943;27;20057;-71
2021/10/06 02:22:37;;;;;;;20.38;8.55;;;;;;;6.78;60.63;102282.56;5126483;27;20039;-74
2021/10/06 02:25:04;;;;;;;21.50;9.20;;;;;;;6.71;60.76;102286.19;5135231;27;20043;-75
2021/10/06 02:27:30;;;;;;;23.05;8.77;;;;;;;6.75;60.97;102295.75;5132557;27;20139;-75
2021/10/06 02:29:56;;;;;;;18.55;10.38;;;;;;;6.76;60.84;102289.59;5133002;27;20038;-73
2021/10/06 02:32:22;;;;;;;25.77;11.27;;;;;;;6.67;60.63;102292.38;5112315;28;20043;-76
2021/10/06 02:34:48;;;;;;;23.48;10.45;;;;;;;6.56;61.94;102289.97;5115726;27;20104;-75
2021/10/06 02:37:13;;;;;;;25.50;10.70;;;;;;;6.48;61.07;102288.34;5119584;27;20048;-72
2021/10/06 02:39:40;;;;;;;23.35;10.32;;;;;;;6.51;61.59;102292.69;5117166;27;20100;-77
2021/10/06 02:42:06;;;;;;;29.60;11.70;;;;;;;6.49;61.51;102297.09;5116268;27;20050;-71
2021/10/06 02:44:33;;;;;;;36.78;13.98;;;;;;;6.46;61.39;102294.53;5134602;27;20127;-71
2021/10/06 02:46:59;;;;;;;27.50;11.07;;;;;;;6.52;61.49;102294.41;5116368;27;20044;-75
2021/10/06 02:49:25;;;;;;;20.63;11.15;;;;;;;6.52;61.46;102297.03;5118855;27;20071;-76
2021/10/06 02:51:50;;;;;;;23.23;11.20;;;;;;;6.47;61.17;102301.53;5122890;27;20073;-73
2021/10/06 02:54:16;;;;;;;20.38;10.80;;;;;;;6.49;60.88;102299.72;5118093;27;20574;-73
2021/10/06 02:56:42;;;;;;;24.52;11.25;;;;;;;6.50;61.16;102290.94;5115237;27;20051;-72
2021/10/06 02:59:07;;;;;;;26.70;13.05;;;;;;;6.48;61.67;102295.38;5126423;27;20077;-74
2021/10/06 03:01:33;;;;;;;25.05;11.48;;;;;;;6.45;60.75;102298.03;5117382;27;20031;-74
2021/10/06 03:03:59;;;;;;;26.38;11.02;;;;;;;6.40;60.99;102302.50;5120066;27;20039;-78
2021/10/06 03:06:25;;;;;;;21.27;10.68;;;;;;;6.36;61.01;102306.09;5115480;27;20481;-72
2021/10/06 03:08:51;;;;;;;24.88;11.02;;;;;;;6.32;61.95;102315.78;5113937;28;20093;-74
2021/10/06 03:11:16;;;;;;;24.70;11.55;;;;;;;6.30;61.76;102312.31;5114014;27;20063;-73
2021/10/06 03:13:42;;;;;;;26.17;11.52;;;;;;;6.33;61.16;102314.91;5114804;27;20043;-74
2021/10/06 03:16:08;;;;;;;20.13;10.65;;;;;;;6.35;60.84;102312.25;5113820;28;20139;-76
2021/10/06 03:18:34;;;;;;;27.40;11.32;;;;;;;6.36;61.03;102306.94;5114702;27;20039;-74
2021/10/06 03:20:59;;;;;;;23.98;10.90;;;;;;;6.38;61.37;102304.28;5132267;27;20042;-76
2021/10/06 03:23:25;;;;;;;27.02;11.50;;;;;;;6.37;61.05;102318.31;5133845;27;20140;-73
2021/10/06 03:25:51;;;;;;;25.55;11.60;;;;;;;6.36;60.74;102312.22;5133567;27;20049;-74
2021/10/06 03:28:17;;;;;;;26.52;11.57;;;;;;;6.37;61.28;102313.94;5133945;27;20126;-73
2021/10/06 03:30:43;;;;;;;28.00;11.65;;;;;;;6.38;60.85;102322.69;5133813;27;20043;-74
2021/10/06 03:33:09;;;;;;;25.58;11.60;;;;;;;6.38;61.47;102323.56;5134136;27;20385;-74
2021/10/06 03:35:35;;;;;;;23.63;11.50;;;;;;;6.30;60.83;102325.44;5133625;27;20051;-74
2021/10/06 03:38:01;;;;;;;21.80;10.85;;;;;;;6.26;61.24;102329.03;5134449;27;20443;-80
2021/10/06 03:40:27;;;;;;;27.20;10.63;;;;;;;6.22;60.83;102330.84;5134235;27;20124;-75
2021/10/06 03:42:52;;;;;;;21.25;10.32;;;;;;;6.11;61.20;102328.38;5134462;27;20057;-76
2021/10/06 03:45:18;;;;;;;27.80;11.30;;;;;;;6.12;61.43;102329.25;5133854;27;20035;-75
2021/10/06 03:47:44;;;;;;;23.45;11.27;;;;;;;6.11;61.63;102330.16;5134078;27;20039;-79
2021/10/06 03:50:12;;;;;;;43.78;16.52;;;;;;;6.11;60.81;102327.50;5132547;27;20035;-75
2021/10/06 03:52:38;;;;;;;26.10;10.90;;;;;;;6.12;60.46;102322.22;5134215;27;20039;-75
2021/10/06 03:55:06;;;;;;;23.48;10.75;;;;;;;6.14;60.14;102327.44;5133922;27;20499;-76
2021/10/06 03:57:32;;;;;;;23.30;11.25;;;;;;;6.24;60.09;102323.81;5133797;27;20035;-74
2021/10/06 03:59:57;;;;;;;24.13;10.98;;;;;;;6.47;60.36;102323.41;5133921;27;20404;-73
2021/10/06 04:02:23;;;;;;;29.38;10.52;;;;;;;6.84;59.25;102323.66;5133757;27;20047;-76
2021/10/06 04:04:49;;;;;;;25.55;10.73;;;;;;;7.05;58.09;102335.53;5133814;27;20031;-76
2021/10/06 04:07:14;;;;;;;22.23;10.48;;;;;;;7.20;57.14;102329.97;5133833;27;20042;-80
2021/10/06 04:09:40;;;;;;;26.10;11.57;;;;;;;7.68;56.57;102328.13;5133525;27;20048;-77
2021/10/06 04:12:06;;;;;;;24.77;11.48;;;;;;;8.20;55.24;102331.28;5133921;27;20050;-80
2021/10/06 04:14:32;;;;;;;23.20;11.20;;;;;;;8.54;54.46;102334.00;5133598;27;20093;-76
2021/10/06 04:16:58;;;;;;;22.55;9.93;;;;;;;8.74;53.15;102332.63;5133560;27;20042;-77
2021/10/06 04:19:23;;;;;;;32.33;12.20;;;;;;;9.26;52.17;102329.44;5131964;27;20513;-76
2021/10/06 04:21:49;;;;;;;20.58;10.55;;;;;;;9.41;51.96;102330.78;5133401;27;20043;-75
2021/10/06 04:24:15;;;;;;;24.73;9.68;;;;;;;9.61;51.23;102331.06;5132778;27;20045;-77
2021/10/06 04:26:40;;;;;;;19.17;9.55;;;;;;;9.58;50.26;102339.06;5133003;27;20458;-77
2021/10/06 04:29:06;;;;;;;18.27;8.90;;;;;;;10.10;49.47;102341.03;5132973;27;20130;-74
2021/10/06 04:31:32;;;;;;;17.83;8.27;;;;;;;10.47;48.48;102340.72;5132464;27;20830;-74
2021/10/06 04:33:58;;;;;;;17.15;8.75;;;;;;;10.86;47.56;102343.84;5132985;27;20088;-76
2021/10/06 04:36:24;;;;;;;16.33;8.70;;;;;;;10.94;46.39;102347.06;5132558;27;20503;-77
2021/10/06 04:38:50;;;;;;;17.80;8.70;;;;;;;11.41;45.90;102352.41;5132918;27;20066;-78
2021/10/06 04:41:16;;;;;;;16.27;8.68;;;;;;;11.32;45.39;102348.31;5132950;27;20039;-76
2021/10/06 04:43:42;;;;;;;25.63;8.75;;;;;;;11.74;44.53;102343.22;5132606;27;20514;-75
2021/10/06 04:46:07;;;;;;;18.83;9.70;;;;;;;12.33;43.72;102347.09;5132690;27;20041;-77
2021/10/06 04:48:33;;;;;;;21.95;9.60;;;;;;;12.61;42.99;102349.47;5132578;27;20047;-75
2021/10/06 04:50:59;;;;;;;16.80;9.40;;;;;;;12.67;42.51;102348.31;5132669;27;20126;-76
2021/10/06 04:53:25;;;;;;;14.13;8.80;;;;;;;13.07;41.73;102351.91;5131675;27;20103;-75
2021/10/06 04:55:51;;;;;;;18.17;8.68;;;;;;;13.28;40.87;102354.53;5132522;27;20092;-77
2021/10/06 04:58:16;;;;;;;14.65;9.40;;;;;;;13.14;40.88;102360.47;5132246;27;20042;-80
2021/10/06 05:00:42;;;;;;;15.85;9.27;;;;;;;13.17;40.68;102362.13;5132361;27;20047;-77
2021/10/06 05:03:09;;;;;;;16.75;9.50;;;;;;;13.69;39.57;102359.75;5131504;27;20050;-74
2021/10/06 05:05:36;;;;;;;15.85;9.70;;;;;;;13.80;39.71;102358.41;5132438;27;20486;-80
2021/10/06 05:08:02;;;;;;;13.75;9.00;;;;;;;14.20;38.56;102353.81;5132508;27;20051;-80
2021/10/06 05:10:27;;;;;;;17.27;8.68;;;;;;;14.99;37.57;102353.38;5132630;27;20051;-74
2021/10/06 05:12:53;;;;;;;21.88;13.40;;;;;;;15.54;36.14;102359.38;5131990;27;20051;-79
2021/10/06 05:15:19;;;;;;;20.17;9.40;;;;;;;15.95;35.42;102368.69;5132534;27;20038;-78
2021/10/06 05:17:45;;;;;;;20.40;9.50;;;;;;;15.81;35.27;102367.66;5132557;27;20035;-77
2021/10/06 05:20:10;;;;;;;26.42;10.13;;;;;;;15.50;35.24;102369.34;5132110;27;20046;-79
2021/10/06 05:22:36;;;;;;;22.38;9.70;;;;;;;15.65;35.44;102367.63;5132021;27;20133;-78
2021/10/06 05:25:04;;;;;;;19.38;9.60;;;;;;;16.30;34.71;102369.34;5132120;27;20051;-80
2021/10/06 05:27:30;;;;;;;22.33;10.43;;;;;;;16.38;34.29;102373.38;5133142;27;20063;-76
2021/10/06 05:29:57;;;;;;;18.10;9.98;;;;;;;16.07;34.00;102377.81;5132302;27;20050;-74
2021/10/06 05:32:23;;;;;;;20.65;9.70;;;;;;;16.49;33.60;102373.63;5130704;27;20043;-75
2021/10/06 05:34:49;;;;;;;17.67;9.85;;;;;;;16.52;32.77;102376.09;5132190;27;20051;-79
2021/10/06 05:37:15;;;;;;;17.23;9.63;;;;;;;16.87;32.69;102373.13;5132164;27;20043;-74
2021/10/06 05:39:41;;;;;;;18.58;9.95;;;;;;;17.07;31.12;102379.09;5131877;27;20049;-76
2021/10/06 05:42:07;;;;;;;20.02;9.90;;;;;;;16.98;31.96;102372.50;5132413;28;20039;-78
2021/10/06 05:44:33;;;;;;;16.30;9.18;;;;;;;17.98;31.40;102369.88;5134817;27;20039;-76
2021/10/06 05:46:59;;;;;;;21.85;10.32;;;;;;;17.52;30.54;102376.34;5136859;27;20126;-75
2021/10/06 05:49:25;;;;;;;19.95;10.18;;;;;;;17.79;31.03;102379.06;5136483;27;20121;-76
2021/10/06 05:51:51;;;;;;;20.90;9.35;;;;;;;17.88;30.97;102378.50;5136486;27;20385;-77
2021/10/06 05:54:17;;;;;;;18.98;9.65;;;;;;;19.06;29.55;102370.69;5136270;27;20099;-78
2021/10/06 05:56:43;;;;;;;19.98;9.75;;;;;;;20.37;27.38;102376.50;5135743;27;20100;-77
2021/10/06 05:59:09;;;;;;;15.88;9.27;;;;;;;18.70;28.75;102377.59;5135808;27;20073;-78
2021/10/06 06:01:34;;;;;;;19.00;9.65;;;;;;;18.66;28.82;102370.75;5136301;27;20047;-76
2021/10/06 06:04:00;;;;;;;20.30;9.25;;;;;;;18.93;28.57;102381.44;5136193;27;20671;-81
2021/10/06 06:06:26;;;;;;;17.83;8.63;;;;;;;19.42;28.19;102374.44;5136342;27;20035;-76
2021/10/06 06:08:52;;;;;;;19.58;8.90;;;;;;;18.87;28.35;102374.63;5135791;27;20187;-76
2021/10/06 06:11:18;;;;;;;18.55;8.73;;;;;;;19.41;28.09;102386.13;5135841;27;20054;-78
2021/10/06 06:13:43;;;;;;;28.17;13.55;;;;;;;19.87;26.92;102385.50;5116714;27;20043;-76
2021/10/06 06:16:09;;;;;;;23.95;8.60;;;;;;;21.21;25.93;102386.25;5135959;27;20102;-83
2021/10/06 06:18:35;;;;;;;15.55;7.88;;;;;;;22.39;24.37;102383.91;5134671;27;20039;-79
2021/10/06 06:21:01;;;;;;;24.88;9.60;;;;;;;22.76;23.70;102386.13;5135988;27;20375;-78
2021/10/06 06:23:29;;;;;;;19.17;9.27;;;;;;;22.42;23.78;102391.72;5136042;27;20031;-76
2021/10/06 06:25:55;;;;;;;15.98;8.43;;;;;;;21.81;24.49;102385.03;5135924;27;20422;-78
2021/10/06 06:28:21;;;;;;;19.88;9.70;;;;;;;21.67;24.69;102398.78;5134373;27;20392;-77
2021/10/06 06:30:47;;;;;;;19.05;10.18;;;;;;;20.94;25.20;102406.28;5135853;27;20050;-80
2021/10/06 06:33:13;;;;;;;19.27;11.40;;;;;;;20.50;25.25;102397.94;5135306;27;20043;-76
2021/10/06 06:35:38;;;;;;;31.55;10.45;;;;;;;20.44;25.76;102393.88;5135494;27;20042;-77
2021/10/06 06:38:05;;;;;;;23.33;10.13;;;;;;;20.48;25.20;102383.75;5134026;27;20068;-76
2021/10/06 06:40:30;;;;;;;22.38;10.55;;;;;;;20.63;25.64;102387.09;5135468;27;20039;-75
2021/10/06 06:42:56;;;;;;;22.85;10.00;;;;;;;21.40;24.90;102394.59;5135635;27;20156;-81
2021/10/06 06:45:22;;;;;;;25.52;8.60;;;;;;;21.68;24.01;102395.06;5134419;27;20103;-76
2021/10/06 06:47:48;;;;;;;17.63;9.02;;;;;;;21.47;24.41;102395.81;5135425;27;20388;-77
2021/10/06 06:50:16;;;;;;;17.33;8.63;;;;;;;21.35;24.09;102396.78;5135403;27;20031;-76
2021/10/06 06:52:41;;;;;;;18.73;8.50;;;;;;;21.72;23.65;102385.78;5135361;27;20039;-76
2021/10/06 06:55:07;;;;;;;17.45;8.40;;;;;;;21.91;23.63;102389.66;5133739;27;20127;-79
2021/10/06 06:57:33;;;;;;;17.35;8.95;;;;;;;22.10;23.85;102383.59;5134374;27;20050;-77
2021/10/06 06:59:59;;;;;;;20.70;8.48;;;;;;;22.97;22.36;102384.41;5133564;27;20035;-83
2021/10/06 07:02:25;;;;;;;20.27;9.93;;;;;;;22.57;22.83;102380.63;5133695;27;20066;-82
2021/10/06 07:04:51;;;;;;;16.73;7.45;;;;;;;23.32;22.49;102380.53;5134325;27;20031;-77
2021/10/06 07:07:36;;;;;;;20.77;7.45;;;;;;;23.25;22.34;102385.59;5135700;27;20035;-77
2021/10/06 07:10:03;;;;;;;16.10;7.15;;;;;;;22.87;21.95;102395.19;5134168;27;20050;-79
2021/10/06 07:12:29;;;;;;;11.30;5.93;;;;;;;22.68;22.36;102383.25;5133400;27;20496;-77
2021/10/06 07:14:54;;;;;;;12.95;6.72;;;;;;;21.61;23.05;102394.72;5134890;27;20047;-82
2021/10/06 07:17:20;;;;;;;20.50;7.18;;;;;;;22.92;22.14;102395.63;5135021;27;20051;-78
2021/10/06 07:19:46;;;;;;;13.00;6.22;;;;;;;22.97;21.73;102390.69;5134294;27;20131;-79
2021/10/06 07:22:13;;;;;;;13.63;6.45;;;;;;;22.74;22.55;102387.25;5134809;27;20043;-77
2021/10/06 07:24:39;;;;;;;14.88;6.80;;;;;;;23.26;21.41;102381.91;5133393;27;20042;-77
2021/10/06 07:27:05;;;;;;;14.73;6.90;;;;;;;22.89;22.04;102391.34;5133700;27;20074;-81
2021/10/06 07:29:32;;;;;;;11.30;6.53;;;;;;;22.26;23.18;102377.78;5134290;27;20047;-77
2021/10/06 07:31:58;;;;;;;12.23;6.30;;;;;;;21.71;23.29;102392.16;5133877;27;20043;-78
2021/10/06 07:34:24;;;;;;;15.30;6.68;;;;;;;21.91;23.27;102389.66;5133620;27;20506;-75
2021/10/06 07:36:50;;;;;;;24.33;13.07;;;;;;;22.21;23.17;102390.81;5133202;27;20175;-77
2021/10/06 07:39:16;;;;;;;15.02;7.50;;;;;;;23.47;22.53;102383.72;5134455;27;20039;-78
2021/10/06 07:41:42;;;;;;;10.23;6.60;;;;;;;23.34;21.44;102384.78;5132664;27;20066;-77
2021/10/06 07:44:08;;;;;;;15.70;7.20;;;;;;;23.88;21.73;102395.34;5134682;27;20054;-83
2021/10/06 07:46:34;;;;;;;13.23;6.93;;;;;;;23.32;21.72;102381.38;5132896;27;20043;-75
2021/10/06 07:49:01;;;;;;;11.68;7.10;;;;;;;23.73;21.65;102395.72;5134140;27;20083;-78
2021/10/06 07:51:27;;;;;;;12.98;6.90;;;;;;;23.91;21.16;102397.75;5134055;27;20039;-80
2021/10/06 07:53:53;;;;;;;10.98;6.47;;;;;;;22.72;21.96;102395.50;5082508;27;20095;-79
2021/10/06 07:56:20;;;;;;;16.50;6.90;;;;;;;22.50;22.57;102392.94;5133151;27;20134;-79
2021/10/06 07:58:47;;;;;;;;;;;;;;;21.86;23.05;102386.47;5134371;27;20467;-78
2021/10/06 08:01:12;;;;;;;14.23;6.75;;;;;;;22.03;23.20;102388.66;5133828;27;19919;-79
2021/10/06 08:03:38;;;;;;;19.25;7.10;;;;;;;22.23;23.32;102388.81;5134116;27;20471;-82
2021/10/06 08:06:07;;;;;;;12.50;7.25;;;;;;;22.71;22.83;102388.38;5134352;27;20503;-80
2021/10/06 08:08:33;;;;;;;12.77;7.45;;;;;;;22.86;22.30;102390.75;5133233;27;20047;-77
2021/10/06 08:11:00;;;;;;;14.68;6.82;;;;;;;22.88;22.57;102389.63;5133912;27;20070;-80
2021/10/06 08:13:26;;;;;;;12.93;7.50;;;;;;;23.25;22.35;102385.59;5133436;27;20403;-78
2021/10/06 08:15:53;;;;;;;12.77;7.20;;;;;;;22.59;22.32;102397.53;5133218;27;20482;-80
2021/10/06 08:18:22;;;;;;;16.38;6.25;;;;;;;24.16;21.84;102384.72;5133701;27;20035;-80
2021/10/06 08:20:50;;;;;;;9.95;6.72;;;;;;;23.87;20.99;102396.31;5131718;27;20046;-79
2021/10/06 08:23:18;;;;;;;;;;;;;;;23.20;22.21;102387.84;5134047;27;20097;-79
2021/10/06 08:25:46;;;;;;;12.60;6.55;;;;;;;23.43;21.92;102389.38;5132177;27;19966;-78
2021/10/06 08:28:12;;;;;;;14.80;6.88;;;;;;;23.69;21.81;102390.72;5133204;27;20046;-79
2021/10/06 08:30:38;;;;;;;14.43;6.28;;;;;;;25.25;20.36;102380.88;5132864;27;20073;-77
2021/10/06 08:33:06;;;;;;;11.30;6.85;;;;;;;25.85;19.90;102377.72;5133089;27;20043;-78
2021/10/06 08:35:32;;;;;;;13.43;6.95;;;;;;;25.34;19.53;102388.94;5133336;27;20047;-78
2021/10/06 08:37:59;;;;;;;15.70;6.45;;;;;;;25.17;20.05;102384.31;5133583;27;20047;-78
2021/10/06 08:40:25;;;;;;;14.37;6.60;;;;;;;25.49;20.12;102393.91;5134195;27;20046;-78
2021/10/06 08:42:51;;;;;;;13.43;6.82;;;;;;;25.58;19.88;102390.28;5116834;27;20321;-78
2021/10/06 08:45:17;;;;;;;16.92;7.80;;;;;;;25.02;19.96;102379.38;5135024;27;20043;-81
2021/10/06 08:47:43;;;;;;;11.13;7.32;;;;;;;24.99;20.07;102382.38;5134844;27;20039;-81
2021/10/06 08:50:13;;;;;;;12.90;7.40;;;;;;;23.65;21.45;102376.66;5136138;27;20050;-78
2021/10/06 08:52:38;;;;;;;17.95;8.23;;;;;;;24.24;21.01;102371.34;5134773;27;20129;-78
2021/10/06 08:55:06;;;;;;;13.32;7.28;;;;;;;24.44;21.25;102368.66;5133802;27;20134;-81
2021/10/06 08:57:33;;;;;;;12.00;7.53;;;;;;;25.77;19.59;102375.78;5132247;27;20043;-76
2021/10/06 08:59:58;;;;;;;17.17;7.35;;;;;;;24.13;20.93;102371.50;5133728;27;20043;-80
2021/10/06 09:02:24;;;;;;;16.95;6.80;;;;;;;25.08;20.01;102366.25;5133178;27;20518;-79
2021/10/06 09:04:52;;;;;;;14.10;6.60;;;;;;;24.84;20.28;102370.31;5132557;27;20035;-83
2021/10/06 09:07:18;;;;;;;14.00;6.60;;;;;;;25.29;20.02;102366.03;5131927;27;20035;-78
2021/10/06 09:09:44;;;;;;;13.77;6.57;;;;;;;26.13;19.24;102358.69;5131023;27;20131;-78
2021/10/06 09:12:15;;;;;;;16.88;7.25;;;;;;;25.70;19.17;102365.72;5132504;27;20079;-81
2021/10/06 09:14:46;;;;;;;10.23;7.25;;;;;;;24.89;20.06;102359.91;5131265;27;20045;-79
2021/10/06 09:17:19;;;;;;;17.65;7.70;;;;;;;25.14;19.84;102374.63;5132977;27;20043;-79
2021/10/06 09:19:46;;;;;;;10.82;6.32;;;;;;;24.88;19.63;102363.59;5130673;27;20043;-77
2021/10/06 09:22:26;;;;;;;9.48;6.20;;;;;;;25.59;19.55;102353.22;5132254;27;20035;-78
2021/10/06 09:24:56;;;;;;;14.57;6.43;;;;;;;24.43;20.05;102364.25;5131195;27;20043;-86
2021/10/06 09:27:25;;;;;;;12.23;6.57;;;;;;;23.87;20.65;102356.63;5133027;27;20047;-77
2021/10/06 09:29:54;;;;;;;14.90;7.50;;;;;;;24.92;19.67;102356.88;5131710;27;20392;-81
2021/10/06 09:32:24;;;;;;;10.55;6.47;;;;;;;24.49;20.41;102350.13;5132192;27;20049;-81
2021/10/06 09:35:04;;;;;;;18.30;8.43;;;;;;;23.56;20.80;102356.72;5132043;27;20046;-78
2021/10/06 09:37:30;;;;;;;10.98;6.82;;;;;;;22.82;21.49;102359.63;5132705;27;20071;-80
2021/10/06 09:39:57;;;;;;;8.50;5.68;;;;;;;23.04;21.51;102351.38;5132225;27;20039;-81
2021/10/06 09:42:23;;;;;;;9.30;5.43;;;;;;;24.12;20.51;102346.28;5132561;27;20049;-80
2021/10/06 09:44:57;;;;;;;9.30;6.00;;;;;;;23.72;20.58;102350.75;5132047;27;20043;-79
2021/10/06 09:47:24;;;;;;;9.65;5.90;;;;;;;23.06;21.70;102354.78;5130954;27;20043;-77
2021/10/06 09:49:55;;;;;;;9.52;5.95;;;;;;;21.95;21.88;102354.25;5131595;27;20078;-78
2021/10/06 09:52:28;;;;;;;11.52;6.60;;;;;;;22.36;22.10;102340.97;5132214;27;20036;-80
2021/10/06 09:54:56;;;;;;;14.27;6.00;;;;;;;23.25;21.46;102336.97;5132345;27;20042;-83
2021/10/06 09:57:29;;;;;;;12.70;5.32;;;;;;;23.81;20.89;102332.84;5131849;27;20039;-80
2021/10/06 10:00:00;;;;;;;9.35;5.20;;;;;;;23.56;21.12;102328.84;5132511;28;20054;-79
2021/10/06 10:02:26;;;;;;;7.75;5.30;;;;;;;22.64;22.10;102329.69;5120365;27;20047;-78
2021/10/06 10:04:54;;;;;;;14.20;6.40;;;;;;;23.30;21.23;102333.88;5110517;28;20054;-80
2021/10/06 10:07:21;;;;;;;10.98;5.93;;;;;;;23.80;20.86;102324.91;5111238;28;20563;-79
2021/10/06 10:09:47;;;;;;;10.63;5.72;;;;;;;24.10;20.59;102329.38;5112041;28;20554;-83
2021/10/06 10:12:12;;;;;;;10.85;6.15;;;;;;;23.05;21.38;102336.91;5110577;28;20055;-77
2021/10/06 10:14:40;;;;;;;10.32;5.72;;;;;;;22.42;21.95;102328.84;5110107;28;20050;-79
2021/10/06 10:17:06;;;;;;;9.48;5.45;;;;;;;21.59;23.31;102328.50;5110072;28;20055;-81
2021/10/06 10:19:31;;;;;;;10.18;6.20;;;;;;;20.77;23.66;102341.22;5110272;28;20448;-78
2021/10/06 10:21:58;;;;;;;8.15;5.43;;;;;;;20.59;24.06;102330.00;5110316;28;20047;-80
2021/10/06 10:24:26;;;;;;;12.07;8.20;;;;;;;20.28;24.65;102328.81;5110659;28;20055;-77
2021/10/06 10:27:04;;;;;;;13.02;5.32;;;;;;;20.79;24.05;102320.41;5112059;28;20078;-79
2021/10/06 10:29:46;;;;;;;9.13;5.38;;;;;;;21.40;23.89;102311.13;5109887;28;20046;-80
2021/10/06 10:32:15;;;;;;;13.18;6.40;;;;;;;21.56;23.52;102313.44;5113738;28;20112;-78
2021/10/06 10:34:56;;;;;;;17.45;5.72;;;;;;;20.32;24.53;102319.53;5115337;27;20100;-79
2021/10/06 10:37:42;;;;;;;9.95;5.45;;;;;;;19.31;25.87;102317.97;5115455;28;20055;-77
2021/10/06 10:40:33;;;;;;;12.02;5.78;;;;;;;19.22;26.21;102314.97;5103781;28;20648;-79
2021/10/06 10:43:06;;;;;;;7.43;4.95;;;;;;;19.52;25.75;102311.03;5115021;28;20514;-79
2021/10/06 10:46:02;;;;;;;15.85;5.10;;;;;;;19.49;25.60;102305.91;5114477;28;20505;-81
2021/10/06 10:48:30;;;;;;;9.20;4.63;;;;;;;18.99;26.38;102313.94;5108304;28;20100;-80
2021/10/06 10:50:56;;;;;;;10.75;4.90;;;;;;;19.37;26.19;102304.97;5114892;28;20039;-81
2021/10/06 10:53:52;;;;;;;10.30;4.90;;;;;;;19.60;26.16;102305.16;5115490;28;20083;-80
2021/10/06 10:56:43;;;;;;;7.57;4.40;;;;;;;19.10;26.53;102306.97;5115032;28;20043;-78
2021/10/06 10:59:17;;;;;;;8.70;4.65;;;;;;;18.73;26.90;102307.72;5114800;28;20044;-76
2021/10/06 11:01:47;;;;;;;8.25;4.30;;;;;;;17.85;27.80;102300.19;5114802;28;20049;-77
2021/10/06 11:04:16;;;;;;;10.07;4.68;;;;;;;17.63;28.55;102302.44;5114334;28;20450;-78
2021/10/06 11:06:48;;;;;;;6.90;4.72;;;;;;;17.13;28.96;102303.84;5114153;28;20114;-80
2021/10/06 11:09:29;;;;;;;8.00;4.55;;;;;;;16.91;29.61;102305.19;5113651;28;20375;-78
2021/10/06 11:12:19;;;;;;;10.00;4.40;;;;;;;16.72;29.97;102307.25;5114846;28;20149;-78
2021/10/06 11:14:47;;;;;;;10.38;4.80;;;;;;;16.73;30.49;102295.59;5103598;28;20054;-79
2021/10/06 11:17:16;;;;;;;;;;;;;;;16.43;30.79;102304.53;5115216;28;20049;-86
2021/10/06 11:19:45;;;;;;;7.97;5.05;;;;;;;16.36;30.99;102308.50;5114659;28;20340;-77